sensor_id;sensor_type;location;lat;lon;timestamp;P1;durP1;ratioP1;P2;durP2;ratioP2
19262;SDS011;9765;52.354;20.884;2023-05-16T03:41:12;8.00;;;5.23;;
19262;SDS011;9765;52.354;20.884;2023-05-16T03:43:38;7.47;;;5.80;;
19262;SDS011;9765;52.354;20.884;2023-05-16T03:46:05;6.67;;;5.80;;
19262;SDS011;9765;52.354;20.884;2023-05-16T03:48:32;6.13;;;5.00;;
19262;SDS011;9765;52.354;20.884;2023-05-16T03:50:59;7.10;;;5.23;;
19262;SDS011;9765;52.354;20.884;2023-05-16T03:53:26;6.47;;;5.60;;
19262;SDS011;9765;52.354;20.884;2023-05-16T03:55:52;8.73;;;5.93;;
19262;SDS011;9765;52.354;20.884;2023-05-16T03:58:20;11.40;;;5.67;;
19262;SDS011;9765;52.354;20.884;2023-05-16T04:00:47;8.70;;;5.63;;
19262;SDS011;9765;52.354;20.884;2023-05-16T04:03:16;7.50;;;6.23;;
19262;SDS011;9765;52.354;20.884;2023-05-16T04:05:43;10.80;;;6.43;;
19262;SDS011;9765;52.354;20.884;2023-05-16T04:08:10;8.10;;;6.00;;
19262;SDS011;9765;52.354;20.884;2023-05-16T04:10:36;10.07;;;6.60;;
19262;SDS011;9765;52.354;20.884;2023-05-16T04:13:03;8.83;;;6.03;;
19262;SDS011;9765;52.354;20.884;2023-05-16T04:15:31;9.13;;;6.17;;
19262;SDS011;9765;52.354;20.884;2023-05-16T04:18:03;9.77;;;6.67;;
19262;SDS011;9765;52.354;20.884;2023-05-16T04:20:30;8.40;;;5.97;;
19262;SDS011;9765;52.354;20.884;2023-05-16T04:22:59;10.70;;;6.63;;
19262;SDS011;9765;52.354;20.884;2023-05-16T04:25:28;9.30;;;6.17;;
19262;SDS011;9765;52.354;20.884;2023-05-16T04:27:55;9.87;;;6.13;;
19262;SDS011;9765;52.354;20.884;2023-05-16T04:30:22;9.77;;;6.77;;
19262;SDS011;9765;52.354;20.884;2023-05-16T04:32:50;8.93;;;5.93;;
19262;SDS011;9765;52.354;20.884;2023-05-16T04:35:17;10.07;;;6.27;;
19262;SDS011;9765;52.354;20.884;2023-05-16T04:37:46;13.23;;;6.13;;
19262;SDS011;9765;52.354;20.884;2023-05-16T04:40:12;8.87;;;5.80;;
19262;SDS011;9765;52.354;20.884;2023-05-16T04:42:39;10.30;;;6.23;;
19262;SDS011;9765;52.354;20.884;2023-05-16T04:45:06;10.77;;;5.90;;
19262;SDS011;9765;52.354;20.884;2023-05-16T04:47:35;9.47;;;6.07;;
19262;SDS011;9765;52.354;20.884;2023-05-16T04:50:04;9.87;;;6.43;;
19262;SDS011;9765;52.354;20.884;2023-05-16T04:52:33;9.97;;;6.30;;
19262;SDS011;9765;52.354;20.884;2023-05-16T04:54:59;8.13;;;5.77;;
19262;SDS011;9765;52.354;20.884;2023-05-16T04:57:29;9.30;;;5.57;;
19262;SDS011;9765;52.354;20.884;2023-05-16T04:59:56;8.17;;;6.40;;
19262;SDS011;9765;52.354;20.884;2023-05-16T05:02:23;11.97;;;6.40;;
19262;SDS011;9765;52.354;20.884;2023-05-16T05:04:52;10.73;;;5.90;;
19262;SDS011;9765;52.354;20.884;2023-05-16T05:07:20;12.73;;;6.93;;
19262;SDS011;9765;52.354;20.884;2023-05-16T05:09:46;12.03;;;6.30;;
19262;SDS011;9765;52.354;20.884;2023-05-16T05:12:17;11.20;;;7.47;;
19262;SDS011;9765;52.354;20.884;2023-05-16T05:14:44;10.10;;;7.30;;
19262;SDS011;9765;52.354;20.884;2023-05-16T05:17:10;10.90;;;6.97;;
19262;SDS011;9765;52.354;20.884;2023-05-16T05:19:37;16.77;;;7.07;;
19262;SDS011;9765;52.354;20.884;2023-05-16T05:22:04;17.33;;;7.87;;
19262;SDS011;9765;52.354;20.884;2023-05-16T05:24:32;13.20;;;7.50;;
19262;SDS011;9765;52.354;20.884;2023-05-16T05:26:59;13.57;;;7.73;;
19262;SDS011;9765;52.354;20.884;2023-05-16T05:29:26;13.53;;;7.60;;
19262;SDS011;9765;52.354;20.884;2023-05-16T05:31:52;20.17;;;8.40;;
19262;SDS011;9765;52.354;20.884;2023-05-16T05:34:19;13.50;;;8.00;;
19262;SDS011;9765;52.354;20.884;2023-05-16T05:36:46;15.60;;;8.37;;
19262;SDS011;9765;52.354;20.884;2023-05-16T05:39:13;14.77;;;8.60;;
19262;SDS011;9765;52.354;20.884;2023-05-16T05:41:41;14.40;;;8.87;;
19262;SDS011;9765;52.354;20.884;2023-05-16T05:44:08;16.43;;;8.10;;
19262;SDS011;9765;52.354;20.884;2023-05-16T05:46:35;14.43;;;7.83;;
19262;SDS011;9765;52.354;20.884;2023-05-16T05:49:01;12.00;;;7.57;;
19262;SDS011;9765;52.354;20.884;2023-05-16T05:51:28;12.20;;;7.57;;
19262;SDS011;9765;52.354;20.884;2023-05-16T05:53:55;14.27;;;8.57;;
19262;SDS011;9765;52.354;20.884;2023-05-16T05:56:22;14.50;;;7.63;;
19262;SDS011;9765;52.354;20.884;2023-05-16T05:58:51;18.40;;;8.30;;
19262;SDS011;9765;52.354;20.884;2023-05-16T06:01:17;15.60;;;8.27;;
19262;SDS011;9765;52.354;20.884;2023-05-16T06:03:45;11.70;;;8.37;;
19262;SDS011;9765;52.354;20.884;2023-05-16T06:06:12;10.33;;;8.07;;
19262;SDS011;9765;52.354;20.884;2023-05-16T06:08:39;11.67;;;7.43;;
19262;SDS011;9765;52.354;20.884;2023-05-16T06:11:06;13.17;;;7.90;;
19262;SDS011;9765;52.354;20.884;2023-05-16T06:13:34;11.13;;;7.43;;
19262;SDS011;9765;52.354;20.884;2023-05-16T06:16:03;10.50;;;7.17;;
19262;SDS011;9765;52.354;20.884;2023-05-16T06:18:30;14.40;;;7.00;;
19262;SDS011;9765;52.354;20.884;2023-05-16T06:20:57;9.77;;;5.90;;
19262;SDS011;9765;52.354;20.884;2023-05-16T06:23:23;10.93;;;7.13;;
19262;SDS011;9765;52.354;20.884;2023-05-16T06:25:51;8.23;;;6.40;;
19262;SDS011;9765;52.354;20.884;2023-05-16T06:28:20;10.23;;;5.87;;
19262;SDS011;9765;52.354;20.884;2023-05-16T06:30:48;9.50;;;6.50;;
19262;SDS011;9765;52.354;20.884;2023-05-16T06:33:17;9.23;;;6.20;;
19262;SDS011;9765;52.354;20.884;2023-05-16T06:35:44;8.60;;;6.43;;
19262;SDS011;9765;52.354;20.884;2023-05-16T06:38:12;9.93;;;6.47;;
19262;SDS011;9765;52.354;20.884;2023-05-16T06:40:41;10.90;;;6.03;;
19262;SDS011;9765;52.354;20.884;2023-05-16T06:43:08;13.87;;;7.23;;
19262;SDS011;9765;52.354;20.884;2023-05-16T06:45:35;9.37;;;7.00;;
19262;SDS011;9765;52.354;20.884;2023-05-16T06:48:02;9.87;;;7.13;;
19262;SDS011;9765;52.354;20.884;2023-05-16T06:50:31;10.13;;;6.20;;
19262;SDS011;9765;52.354;20.884;2023-05-16T06:52:59;8.67;;;6.37;;
19262;SDS011;9765;52.354;20.884;2023-05-16T06:55:26;10.53;;;6.30;;
19262;SDS011;9765;52.354;20.884;2023-05-16T06:57:53;9.10;;;6.03;;
19262;SDS011;9765;52.354;20.884;2023-05-16T07:00:20;9.47;;;5.13;;
19262;SDS011;9765;52.354;20.884;2023-05-16T07:02:47;10.90;;;5.00;;
19262;SDS011;9765;52.354;20.884;2023-05-16T07:05:14;7.60;;;5.03;;
19262;SDS011;9765;52.354;20.884;2023-05-16T07:07:42;9.27;;;5.13;;
19262;SDS011;9765;52.354;20.884;2023-05-16T07:10:11;7.47;;;5.17;;
19262;SDS011;9765;52.354;20.884;2023-05-16T07:12:40;10.87;;;5.73;;
19262;SDS011;9765;52.354;20.884;2023-05-16T07:15:07;8.20;;;6.37;;
19262;SDS011;9765;52.354;20.884;2023-05-16T07:17:34;11.10;;;5.97;;
19262;SDS011;9765;52.354;20.884;2023-05-16T07:20:07;10.50;;;6.30;;
19262;SDS011;9765;52.354;20.884;2023-05-16T07:22:37;10.13;;;6.63;;
19262;SDS011;9765;52.354;20.884;2023-05-16T07:25:09;12.13;;;6.50;;
19262;SDS011;9765;52.354;20.884;2023-05-16T07:27:37;8.73;;;6.03;;
19262;SDS011;9765;52.354;20.884;2023-05-16T07:30:05;7.33;;;5.50;;
19262;SDS011;9765;52.354;20.884;2023-05-16T07:32:33;9.13;;;5.60;;
19262;SDS011;9765;52.354;20.884;2023-05-16T07:35:00;9.50;;;5.50;;
19262;SDS011;9765;52.354;20.884;2023-05-16T07:37:27;6.70;;;4.73;;
19262;SDS011;9765;52.354;20.884;2023-05-16T07:39:54;8.97;;;4.80;;
19262;SDS011;9765;52.354;20.884;2023-05-16T07:42:22;5.53;;;3.90;;
19262;SDS011;9765;52.354;20.884;2023-05-16T07:44:48;9.13;;;4.30;;
19262;SDS011;9765;52.354;20.884;2023-05-16T07:47:15;5.97;;;3.70;;
19262;SDS011;9765;52.354;20.884;2023-05-16T07:49:42;5.20;;;3.67;;
19262;SDS011;9765;52.354;20.884;2023-05-16T07:52:09;6.43;;;3.87;;
19262;SDS011;9765;52.354;20.884;2023-05-16T07:54:36;5.10;;;3.53;;
19262;SDS011;9765;52.354;20.884;2023-05-16T07:57:03;6.20;;;3.83;;
19262;SDS011;9765;52.354;20.884;2023-05-16T07:59:32;5.50;;;3.50;;
19262;SDS011;9765;52.354;20.884;2023-05-16T08:01:59;6.30;;;3.73;;
19262;SDS011;9765;52.354;20.884;2023-05-16T08:04:28;9.67;;;3.90;;
19262;SDS011;9765;52.354;20.884;2023-05-16T08:06:55;5.40;;;3.63;;
19262;SDS011;9765;52.354;20.884;2023-05-16T08:09:22;7.70;;;3.87;;
19262;SDS011;9765;52.354;20.884;2023-05-16T08:11:49;6.60;;;3.63;;
19262;SDS011;9765;52.354;20.884;2023-05-16T08:14:17;8.13;;;3.50;;
19262;SDS011;9765;52.354;20.884;2023-05-16T08:16:46;5.00;;;3.57;;
19262;SDS011;9765;52.354;20.884;2023-05-16T08:19:13;8.27;;;3.70;;
19262;SDS011;9765;52.354;20.884;2023-05-16T08:21:40;4.80;;;3.70;;
19262;SDS011;9765;52.354;20.884;2023-05-16T08:24:08;9.03;;;3.50;;
19262;SDS011;9765;52.354;20.884;2023-05-16T08:26:36;3.60;;;3.10;;
19262;SDS011;9765;52.354;20.884;2023-05-16T08:29:08;3.87;;;2.60;;
19262;SDS011;9765;52.354;20.884;2023-05-16T08:31:35;3.93;;;2.27;;
19262;SDS011;9765;52.354;20.884;2023-05-16T08:34:03;3.17;;;2.33;;
19262;SDS011;9765;52.354;20.884;2023-05-16T08:36:30;5.93;;;2.40;;
19262;SDS011;9765;52.354;20.884;2023-05-16T08:38:58;4.73;;;2.13;;
19262;SDS011;9765;52.354;20.884;2023-05-16T08:41:27;7.43;;;1.97;;
19262;SDS011;9765;52.354;20.884;2023-05-16T08:43:55;4.97;;;2.60;;
19262;SDS011;9765;52.354;20.884;2023-05-16T08:46:22;3.53;;;2.20;;
19262;SDS011;9765;52.354;20.884;2023-05-16T08:48:50;2.90;;;2.17;;
19262;SDS011;9765;52.354;20.884;2023-05-16T08:51:19;3.13;;;2.60;;
19262;SDS011;9765;52.354;20.884;2023-05-16T08:53:51;6.03;;;1.80;;
19262;SDS011;9765;52.354;20.884;2023-05-16T08:56:22;2.30;;;1.97;;
19262;SDS011;9765;52.354;20.884;2023-05-16T08:58:50;4.40;;;2.20;;
19262;SDS011;9765;52.354;20.884;2023-05-16T09:01:22;5.03;;;1.90;;
19262;SDS011;9765;52.354;20.884;2023-05-16T09:03:49;4.60;;;1.90;;
19262;SDS011;9765;52.354;20.884;2023-05-16T09:06:16;4.57;;;1.67;;
19262;SDS011;9765;52.354;20.884;2023-05-16T09:08:45;3.60;;;1.80;;
19262;SDS011;9765;52.354;20.884;2023-05-16T09:11:11;3.17;;;2.27;;
19262;SDS011;9765;52.354;20.884;2023-05-16T09:13:38;2.90;;;1.87;;
19262;SDS011;9765;52.354;20.884;2023-05-16T09:16:09;3.57;;;1.67;;
19262;SDS011;9765;52.354;20.884;2023-05-16T09:18:37;2.57;;;1.80;;
19262;SDS011;9765;52.354;20.884;2023-05-16T09:21:04;5.03;;;2.07;;
19262;SDS011;9765;52.354;20.884;2023-05-16T09:23:32;3.40;;;1.97;;
19262;SDS011;9765;52.354;20.884;2023-05-16T09:26:00;2.93;;;1.83;;
19262;SDS011;9765;52.354;20.884;2023-05-16T09:28:28;2.97;;;1.90;;
19262;SDS011;9765;52.354;20.884;2023-05-16T09:30:55;3.90;;;1.77;;
19262;SDS011;9765;52.354;20.884;2023-05-16T09:33:25;2.40;;;1.63;;
19262;SDS011;9765;52.354;20.884;2023-05-16T09:35:57;2.17;;;1.70;;
19262;SDS011;9765;52.354;20.884;2023-05-16T09:38:24;3.83;;;1.73;;
19262;SDS011;9765;52.354;20.884;2023-05-16T09:40:52;4.33;;;1.87;;
19262;SDS011;9765;52.354;20.884;2023-05-16T09:43:22;6.53;;;1.87;;
19262;SDS011;9765;52.354;20.884;2023-05-16T09:45:52;4.20;;;2.40;;
19262;SDS011;9765;52.354;20.884;2023-05-16T09:48:19;3.93;;;2.00;;
19262;SDS011;9765;52.354;20.884;2023-05-16T09:50:49;3.83;;;2.10;;
19262;SDS011;9765;52.354;20.884;2023-05-16T09:53:23;5.27;;;1.80;;
19262;SDS011;9765;52.354;20.884;2023-05-16T09:55:58;3.67;;;2.07;;
19262;SDS011;9765;52.354;20.884;2023-05-16T09:58:29;3.40;;;1.97;;
19262;SDS011;9765;52.354;20.884;2023-05-16T10:00:57;2.60;;;1.63;;
19262;SDS011;9765;52.354;20.884;2023-05-16T10:03:24;3.47;;;1.80;;
19262;SDS011;9765;52.354;20.884;2023-05-16T10:05:51;5.87;;;1.90;;
19262;SDS011;9765;52.354;20.884;2023-05-16T10:08:19;2.47;;;1.73;;
19262;SDS011;9765;52.354;20.884;2023-05-16T10:10:47;2.83;;;2.00;;
19262;SDS011;9765;52.354;20.884;2023-05-16T10:13:20;4.03;;;2.00;;
19262;SDS011;9765;52.354;20.884;2023-05-16T10:15:49;4.57;;;1.80;;
19262;SDS011;9765;52.354;20.884;2023-05-16T10:18:19;2.73;;;1.73;;
19262;SDS011;9765;52.354;20.884;2023-05-16T10:20:48;2.73;;;1.60;;
19262;SDS011;9765;52.354;20.884;2023-05-16T10:23:19;2.77;;;1.87;;
19262;SDS011;9765;52.354;20.884;2023-05-16T10:25:46;5.83;;;1.87;;
19262;SDS011;9765;52.354;20.884;2023-05-16T10:28:14;3.37;;;1.87;;
19262;SDS011;9765;52.354;20.884;2023-05-16T10:30:42;5.00;;;1.70;;
19262;SDS011;9765;52.354;20.884;2023-05-16T10:33:12;35.57;;;3.30;;
19262;SDS011;9765;52.354;20.884;2023-05-16T10:35:40;4.53;;;1.60;;
19262;SDS011;9765;52.354;20.884;2023-05-16T10:38:08;3.73;;;1.60;;
19262;SDS011;9765;52.354;20.884;2023-05-16T10:40:36;2.00;;;1.60;;
19262;SDS011;9765;52.354;20.884;2023-05-16T10:43:05;2.60;;;1.77;;
19262;SDS011;9765;52.354;20.884;2023-05-16T10:45:33;11.10;;;2.20;;
19262;SDS011;9765;52.354;20.884;2023-05-16T10:48:03;5.23;;;1.90;;
19262;SDS011;9765;52.354;20.884;2023-05-16T10:50:34;2.13;;;1.53;;
19262;SDS011;9765;52.354;20.884;2023-05-16T10:53:16;2.83;;;1.50;;
19262;SDS011;9765;52.354;20.884;2023-05-16T10:55:48;4.83;;;1.50;;
19262;SDS011;9765;52.354;20.884;2023-05-16T10:58:22;1.77;;;1.60;;
19262;SDS011;9765;52.354;20.884;2023-05-16T11:04:04;2.97;;;2.13;;
19262;SDS011;9765;52.354;20.884;2023-05-16T11:06:43;5.43;;;1.70;;
19262;SDS011;9765;52.354;20.884;2023-05-16T11:09:19;4.30;;;1.70;;
19262;SDS011;9765;52.354;20.884;2023-05-16T11:11:52;2.67;;;1.50;;
19262;SDS011;9765;52.354;20.884;2023-05-16T11:14:22;3.93;;;1.80;;
19262;SDS011;9765;52.354;20.884;2023-05-16T11:16:50;2.70;;;1.57;;
19262;SDS011;9765;52.354;20.884;2023-05-16T11:19:27;13.63;;;2.20;;
19262;SDS011;9765;52.354;20.884;2023-05-16T11:22:07;2.60;;;1.60;;
19262;SDS011;9765;52.354;20.884;2023-05-16T11:24:35;13.23;;;2.90;;
19262;SDS011;9765;52.354;20.884;2023-05-16T11:27:04;5.67;;;2.33;;
19262;SDS011;9765;52.354;20.884;2023-05-16T11:29:31;5.43;;;1.93;;
19262;SDS011;9765;52.354;20.884;2023-05-16T11:32:00;5.43;;;1.40;;
19262;SDS011;9765;52.354;20.884;2023-05-16T11:34:27;3.93;;;1.50;;
19262;SDS011;9765;52.354;20.884;2023-05-16T11:36:55;1.97;;;1.57;;
19262;SDS011;9765;52.354;20.884;2023-05-16T11:39:28;2.30;;;1.30;;
19262;SDS011;9765;52.354;20.884;2023-05-16T11:41:59;2.90;;;1.80;;
19262;SDS011;9765;52.354;20.884;2023-05-16T11:44:26;2.50;;;1.43;;
19262;SDS011;9765;52.354;20.884;2023-05-16T11:46:53;3.00;;;1.77;;
19262;SDS011;9765;52.354;20.884;2023-05-16T11:49:22;3.77;;;1.60;;
19262;SDS011;9765;52.354;20.884;2023-05-16T11:51:51;4.33;;;1.80;;
19262;SDS011;9765;52.354;20.884;2023-05-16T11:54:21;2.67;;;1.50;;
19262;SDS011;9765;52.354;20.884;2023-05-16T11:56:52;5.17;;;1.50;;
19262;SDS011;9765;52.354;20.884;2023-05-16T11:59:19;7.90;;;1.63;;
19262;SDS011;9765;52.354;20.884;2023-05-16T12:01:46;5.20;;;1.73;;
19262;SDS011;9765;52.354;20.884;2023-05-16T12:04:14;5.30;;;2.10;;
19262;SDS011;9765;52.354;20.884;2023-05-16T12:06:44;5.40;;;1.70;;
19262;SDS011;9765;52.354;20.884;2023-05-16T12:09:28;2.57;;;1.57;;
19262;SDS011;9765;52.354;20.884;2023-05-16T12:11:57;4.57;;;1.60;;
19262;SDS011;9765;52.354;20.884;2023-05-16T12:14:23;3.20;;;1.40;;
19262;SDS011;9765;52.354;20.884;2023-05-16T12:16:51;3.80;;;1.60;;
19262;SDS011;9765;52.354;20.884;2023-05-16T12:19:19;2.03;;;1.60;;
19262;SDS011;9765;52.354;20.884;2023-05-16T12:21:46;3.23;;;1.60;;
19262;SDS011;9765;52.354;20.884;2023-05-16T12:24:13;3.70;;;1.53;;
19262;SDS011;9765;52.354;20.884;2023-05-16T12:26:41;2.80;;;1.53;;
19262;SDS011;9765;52.354;20.884;2023-05-16T12:29:10;2.10;;;1.50;;
19262;SDS011;9765;52.354;20.884;2023-05-16T12:31:41;3.30;;;1.50;;
19262;SDS011;9765;52.354;20.884;2023-05-16T12:34:14;2.57;;;1.77;;
19262;SDS011;9765;52.354;20.884;2023-05-16T12:36:46;10.27;;;1.87;;
19262;SDS011;9765;52.354;20.884;2023-05-16T12:39:16;4.97;;;1.50;;
19262;SDS011;9765;52.354;20.884;2023-05-16T12:41:43;2.57;;;1.37;;
19262;SDS011;9765;52.354;20.884;2023-05-16T12:44:15;3.10;;;1.87;;
19262;SDS011;9765;52.354;20.884;2023-05-16T12:46:44;5.53;;;1.77;;
19262;SDS011;9765;52.354;20.884;2023-05-16T12:49:12;3.77;;;1.80;;
19262;SDS011;9765;52.354;20.884;2023-05-16T12:51:39;3.70;;;1.60;;
19262;SDS011;9765;52.354;20.884;2023-05-16T12:54:14;4.77;;;1.77;;
19262;SDS011;9765;52.354;20.884;2023-05-16T12:56:41;2.10;;;1.60;;
19262;SDS011;9765;52.354;20.884;2023-05-16T12:59:08;2.87;;;1.77;;
19262;SDS011;9765;52.354;20.884;2023-05-16T13:01:38;3.60;;;1.60;;
19262;SDS011;9765;52.354;20.884;2023-05-16T13:04:06;2.80;;;1.60;;
19262;SDS011;9765;52.354;20.884;2023-05-16T13:06:33;2.40;;;1.70;;
19262;SDS011;9765;52.354;20.884;2023-05-16T13:09:03;3.40;;;1.70;;
19262;SDS011;9765;52.354;20.884;2023-05-16T13:11:29;6.20;;;1.70;;
19262;SDS011;9765;52.354;20.884;2023-05-16T13:13:56;6.93;;;1.73;;
19262;SDS011;9765;52.354;20.884;2023-05-16T13:16:23;4.90;;;1.90;;
19262;SDS011;9765;52.354;20.884;2023-05-16T13:18:51;2.27;;;1.90;;
19262;SDS011;9765;52.354;20.884;2023-05-16T13:21:18;7.40;;;2.07;;
19262;SDS011;9765;52.354;20.884;2023-05-16T13:23:46;5.33;;;1.80;;
19262;SDS011;9765;52.354;20.884;2023-05-16T13:26:12;4.33;;;2.10;;
19262;SDS011;9765;52.354;20.884;2023-05-16T13:28:39;4.30;;;1.73;;
19262;SDS011;9765;52.354;20.884;2023-05-16T13:31:06;2.50;;;1.70;;
19262;SDS011;9765;52.354;20.884;2023-05-16T13:33:33;2.80;;;1.67;;
19262;SDS011;9765;52.354;20.884;2023-05-16T13:36:03;2.50;;;1.53;;
19262;SDS011;9765;52.354;20.884;2023-05-16T13:38:33;11.80;;;2.43;;
19262;SDS011;9765;52.354;20.884;2023-05-16T13:41:00;4.70;;;1.90;;
19262;SDS011;9765;52.354;20.884;2023-05-16T13:43:30;13.80;;;2.47;;
19262;SDS011;9765;52.354;20.884;2023-05-16T13:45:58;4.07;;;1.70;;
19262;SDS011;9765;52.354;20.884;2023-05-16T13:48:25;3.30;;;1.70;;
19262;SDS011;9765;52.354;20.884;2023-05-16T13:50:52;15.10;;;2.60;;
19262;SDS011;9765;52.354;20.884;2023-05-16T13:53:21;6.10;;;1.70;;
19262;SDS011;9765;52.354;20.884;2023-05-16T13:55:50;5.17;;;1.90;;
19262;SDS011;9765;52.354;20.884;2023-05-16T13:58:18;5.50;;;1.80;;
19262;SDS011;9765;52.354;20.884;2023-05-16T14:00:50;5.63;;;1.80;;
19262;SDS011;9765;52.354;20.884;2023-05-16T14:03:19;8.20;;;1.83;;
19262;SDS011;9765;52.354;20.884;2023-05-16T14:05:46;3.07;;;1.60;;
19262;SDS011;9765;52.354;20.884;2023-05-16T14:08:13;4.13;;;1.60;;
19262;SDS011;9765;52.354;20.884;2023-05-16T14:10:41;4.13;;;1.83;;
19262;SDS011;9765;52.354;20.884;2023-05-16T14:13:08;5.60;;;2.00;;
19262;SDS011;9765;52.354;20.884;2023-05-16T14:15:35;5.43;;;1.90;;
19262;SDS011;9765;52.354;20.884;2023-05-16T14:18:05;3.07;;;1.73;;
19262;SDS011;9765;52.354;20.884;2023-05-16T14:20:32;29.80;;;3.67;;
19262;SDS011;9765;52.354;20.884;2023-05-16T14:23:01;3.13;;;2.00;;
19262;SDS011;9765;52.354;20.884;2023-05-16T14:25:31;4.77;;;1.70;;
19262;SDS011;9765;52.354;20.884;2023-05-16T14:27:59;3.87;;;1.73;;
19262;SDS011;9765;52.354;20.884;2023-05-16T14:30:26;2.27;;;1.70;;
19262;SDS011;9765;52.354;20.884;2023-05-16T14:32:52;4.23;;;1.70;;
19262;SDS011;9765;52.354;20.884;2023-05-16T14:35:20;7.13;;;1.60;;
19262;SDS011;9765;52.354;20.884;2023-05-16T14:37:46;2.23;;;1.40;;
19262;SDS011;9765;52.354;20.884;2023-05-16T14:40:13;2.23;;;1.60;;
19262;SDS011;9765;52.354;20.884;2023-05-16T14:42:40;2.93;;;1.57;;
19262;SDS011;9765;52.354;20.884;2023-05-16T14:45:09;6.63;;;1.87;;
19262;SDS011;9765;52.354;20.884;2023-05-16T14:47:36;3.67;;;1.80;;
19262;SDS011;9765;52.354;20.884;2023-05-16T14:50:03;12.77;;;2.40;;
19262;SDS011;9765;52.354;20.884;2023-05-16T14:52:31;4.90;;;1.90;;
19262;SDS011;9765;52.354;20.884;2023-05-16T14:55:00;7.97;;;1.83;;
19262;SDS011;9765;52.354;20.884;2023-05-16T14:57:30;3.67;;;1.60;;
19262;SDS011;9765;52.354;20.884;2023-05-16T14:59:56;7.27;;;1.80;;
19262;SDS011;9765;52.354;20.884;2023-05-16T15:02:25;7.60;;;1.43;;
19262;SDS011;9765;52.354;20.884;2023-05-16T15:04:51;11.47;;;1.80;;
19262;SDS011;9765;52.354;20.884;2023-05-16T15:07:18;16.43;;;2.50;;
19262;SDS011;9765;52.354;20.884;2023-05-16T15:09:47;6.97;;;1.80;;
19262;SDS011;9765;52.354;20.884;2023-05-16T15:12:14;3.43;;;2.10;;
19262;SDS011;9765;52.354;20.884;2023-05-16T15:14:43;8.93;;;2.00;;
19262;SDS011;9765;52.354;20.884;2023-05-16T15:17:10;7.30;;;2.47;;
19262;SDS011;9765;52.354;20.884;2023-05-16T15:19:38;3.27;;;1.83;;
19262;SDS011;9765;52.354;20.884;2023-05-16T15:22:04;2.37;;;1.60;;
19262;SDS011;9765;52.354;20.884;2023-05-16T15:24:32;1.73;;;1.50;;
19262;SDS011;9765;52.354;20.884;2023-05-16T15:26:59;4.30;;;1.70;;
19262;SDS011;9765;52.354;20.884;2023-05-16T15:29:28;3.93;;;1.90;;
19262;SDS011;9765;52.354;20.884;2023-05-16T15:31:55;3.00;;;1.90;;
19262;SDS011;9765;52.354;20.884;2023-05-16T15:34:24;11.80;;;3.40;;
19262;SDS011;9765;52.354;20.884;2023-05-16T15:36:53;6.83;;;2.50;;
19262;SDS011;9765;52.354;20.884;2023-05-16T15:39:20;3.33;;;1.70;;
19262;SDS011;9765;52.354;20.884;2023-05-16T15:41:49;19.20;;;3.47;;
19262;SDS011;9765;52.354;20.884;2023-05-16T15:44:18;2.60;;;1.90;;
19262;SDS011;9765;52.354;20.884;2023-05-16T15:46:45;7.67;;;1.87;;
19262;SDS011;9765;52.354;20.884;2023-05-16T15:49:12;4.57;;;1.80;;
19262;SDS011;9765;52.354;20.884;2023-05-16T15:51:39;6.73;;;1.70;;
19262;SDS011;9765;52.354;20.884;2023-05-16T15:54:08;8.13;;;1.93;;
19262;SDS011;9765;52.354;20.884;2023-05-16T15:56:35;5.87;;;1.90;;
19262;SDS011;9765;52.354;20.884;2023-05-16T15:59:02;5.37;;;1.93;;
19262;SDS011;9765;52.354;20.884;2023-05-16T16:01:29;3.60;;;1.67;;
19262;SDS011;9765;52.354;20.884;2023-05-16T16:03:55;3.80;;;1.60;;
19262;SDS011;9765;52.354;20.884;2023-05-16T16:06:22;5.23;;;1.57;;
19262;SDS011;9765;52.354;20.884;2023-05-16T16:08:49;5.37;;;1.60;;
19262;SDS011;9765;52.354;20.884;2023-05-16T16:11:18;4.53;;;1.80;;
19262;SDS011;9765;52.354;20.884;2023-05-16T16:13:47;9.47;;;2.10;;
19262;SDS011;9765;52.354;20.884;2023-05-16T16:16:14;3.57;;;1.93;;
19262;SDS011;9765;52.354;20.884;2023-05-16T16:18:40;3.20;;;1.83;;
19262;SDS011;9765;52.354;20.884;2023-05-16T16:21:07;2.97;;;1.50;;
19262;SDS011;9765;52.354;20.884;2023-05-16T16:23:35;4.10;;;1.60;;
19262;SDS011;9765;52.354;20.884;2023-05-16T16:26:02;8.10;;;1.90;;
19262;SDS011;9765;52.354;20.884;2023-05-16T16:28:31;2.07;;;1.60;;
19262;SDS011;9765;52.354;20.884;2023-05-16T16:30:58;5.80;;;1.70;;
19262;SDS011;9765;52.354;20.884;2023-05-16T16:33:24;8.87;;;2.00;;
19262;SDS011;9765;52.354;20.884;2023-05-16T16:35:51;3.23;;;1.90;;
19262;SDS011;9765;52.354;20.884;2023-05-16T16:38:19;1.97;;;1.50;;
19262;SDS011;9765;52.354;20.884;2023-05-16T16:40:46;2.47;;;1.80;;
19262;SDS011;9765;52.354;20.884;2023-05-16T16:43:13;10.90;;;1.97;;
19262;SDS011;9765;52.354;20.884;2023-05-16T16:45:41;5.00;;;1.80;;
19262;SDS011;9765;52.354;20.884;2023-05-16T16:48:08;5.23;;;2.00;;
19262;SDS011;9765;52.354;20.884;2023-05-16T16:50:35;26.37;;;2.97;;
19262;SDS011;9765;52.354;20.884;2023-05-16T16:53:02;13.03;;;2.10;;
19262;SDS011;9765;52.354;20.884;2023-05-16T16:55:29;4.90;;;1.93;;
19262;SDS011;9765;52.354;20.884;2023-05-16T16:58:01;92.53;;;5.80;;
19262;SDS011;9765;52.354;20.884;2023-05-16T17:00:28;19.20;;;3.57;;
19262;SDS011;9765;52.354;20.884;2023-05-16T17:02:56;12.97;;;2.50;;
19262;SDS011;9765;52.354;20.884;2023-05-16T17:05:23;5.20;;;2.20;;
19262;SDS011;9765;52.354;20.884;2023-05-16T17:07:50;10.83;;;2.40;;
19262;SDS011;9765;52.354;20.884;2023-05-16T17:10:17;15.33;;;2.53;;
19262;SDS011;9765;52.354;20.884;2023-05-16T17:12:45;54.00;;;4.67;;
19262;SDS011;9765;52.354;20.884;2023-05-16T17:15:13;4.53;;;2.10;;
19262;SDS011;9765;52.354;20.884;2023-05-16T17:17:41;8.80;;;2.33;;
19262;SDS011;9765;52.354;20.884;2023-05-16T17:20:10;11.77;;;2.27;;
19262;SDS011;9765;52.354;20.884;2023-05-16T17:22:38;3.90;;;1.90;;
19262;SDS011;9765;52.354;20.884;2023-05-16T17:25:05;5.87;;;1.87;;
19262;SDS011;9765;52.354;20.884;2023-05-16T17:27:32;7.10;;;2.10;;
19262;SDS011;9765;52.354;20.884;2023-05-16T17:29:59;4.00;;;2.00;;
19262;SDS011;9765;52.354;20.884;2023-05-16T17:32:28;2.00;;;1.77;;
19262;SDS011;9765;52.354;20.884;2023-05-16T17:34:55;17.90;;;2.40;;
19262;SDS011;9765;52.354;20.884;2023-05-16T17:37:25;7.33;;;1.70;;
19262;SDS011;9765;52.354;20.884;2023-05-16T17:39:54;4.23;;;1.90;;
19262;SDS011;9765;52.354;20.884;2023-05-16T17:42:22;7.80;;;2.23;;
19262;SDS011;9765;52.354;20.884;2023-05-16T17:44:49;40.73;;;4.10;;
19262;SDS011;9765;52.354;20.884;2023-05-16T17:47:16;9.57;;;2.53;;
19262;SDS011;9765;52.354;20.884;2023-05-16T17:49:43;13.23;;;2.83;;
19262;SDS011;9765;52.354;20.884;2023-05-16T17:52:11;27.90;;;3.73;;
19262;SDS011;9765;52.354;20.884;2023-05-16T17:54:40;12.33;;;3.00;;
19262;SDS011;9765;52.354;20.884;2023-05-16T17:57:07;4.47;;;2.30;;
19262;SDS011;9765;52.354;20.884;2023-05-16T17:59:35;4.73;;;2.27;;
19262;SDS011;9765;52.354;20.884;2023-05-16T18:02:02;4.17;;;2.07;;
19262;SDS011;9765;52.354;20.884;2023-05-16T18:04:29;8.77;;;2.33;;
19262;SDS011;9765;52.354;20.884;2023-05-16T18:06:56;8.37;;;2.53;;
19262;SDS011;9765;52.354;20.884;2023-05-16T18:09:22;16.27;;;3.20;;
19262;SDS011;9765;52.354;20.884;2023-05-16T18:11:50;10.87;;;2.30;;
19262;SDS011;9765;52.354;20.884;2023-05-16T18:14:17;9.53;;;3.03;;
19262;SDS011;9765;52.354;20.884;2023-05-16T18:16:44;9.70;;;2.50;;
19262;SDS011;9765;52.354;20.884;2023-05-16T18:19:11;24.83;;;3.80;;
19262;SDS011;9765;52.354;20.884;2023-05-16T18:21:38;11.87;;;2.90;;
19262;SDS011;9765;52.354;20.884;2023-05-16T18:24:05;13.20;;;2.13;;
19262;SDS011;9765;52.354;20.884;2023-05-16T18:26:35;9.93;;;2.60;;
